sensor_id;sensor_type;location;lat;lon;timestamp;pressure;altitude;pressure_sealevel;temperature;humidity
43691;BME280;29293;52.190;21.226;2023-03-04T00:13:30;100050.91;;;-0.85;100.00
43691;BME280;29293;52.190;21.226;2023-03-04T00:28:40;100041.95;;;-0.81;100.00
43691;BME280;29293;52.190;21.226;2023-03-04T00:43:49;100029.85;;;-0.76;100.00
43691;BME280;29293;52.190;21.226;2023-03-04T00:58:59;100002.15;;;-0.72;100.00
43691;BME280;29293;52.190;21.226;2023-03-04T01:14:10;99972.27;;;-0.66;100.00
43691;BME280;29293;52.190;21.226;2023-03-04T01:29:20;99939.46;;;-0.64;100.00
43691;BME280;29293;52.190;21.226;2023-03-04T01:44:30;99895.19;;;-0.64;100.00
43691;BME280;29293;52.190;21.226;2023-03-04T01:59:41;99861.11;;;-0.65;100.00
43691;BME280;29293;52.190;21.226;2023-03-04T02:14:52;99844.67;;;-0.68;100.00
43691;BME280;29293;52.190;21.226;2023-03-04T02:30:02;99824.33;;;-0.75;100.00
43691;BME280;29293;52.190;21.226;2023-03-04T02:45:37;99821.98;;;-0.74;100.00
43691;BME280;29293;52.190;21.226;2023-03-04T03:00:47;99810.00;;;-0.68;100.00
43691;BME280;29293;52.190;21.226;2023-03-04T03:15:58;99797.31;;;-0.58;100.00
43691;BME280;29293;52.190;21.226;2023-03-04T03:31:08;99785.33;;;-0.51;100.00
43691;BME280;29293;52.190;21.226;2023-03-04T03:46:18;99776.59;;;-0.38;100.00
43691;BME280;29293;52.190;21.226;2023-03-04T04:01:28;99751.36;;;-0.32;100.00
43691;BME280;29293;52.190;21.226;2023-03-04T04:16:37;99740.48;;;-0.27;100.00
43691;BME280;29293;52.190;21.226;2023-03-04T04:31:46;99733.70;;;-0.18;100.00
43691;BME280;29293;52.190;21.226;2023-03-04T04:46:57;99731.67;;;-0.11;100.00
43691;BME280;29293;52.190;21.226;2023-03-04T05:02:06;99719.05;;;-0.04;100.00
43691;BME280;29293;52.190;21.226;2023-03-04T05:17:16;99714.39;;;0.03;100.00
43691;BME280;29293;52.190;21.226;2023-03-04T05:32:24;99702.61;;;0.10;100.00
43691;BME280;29293;52.190;21.226;2023-03-04T05:47:35;99694.96;;;0.16;100.00
43691;BME280;29293;52.190;21.226;2023-03-04T06:02:46;99687.09;;;0.23;100.00
43691;BME280;29293;52.190;21.226;2023-03-04T06:17:55;99675.71;;;0.26;100.00
43691;BME280;29293;52.190;21.226;2023-03-04T06:33:06;99654.69;;;0.32;100.00
43691;BME280;29293;52.190;21.226;2023-03-04T06:48:15;99644.45;;;0.40;100.00
43691;BME280;29293;52.190;21.226;2023-03-04T07:03:26;99649.61;;;0.46;100.00
43691;BME280;29293;52.190;21.226;2023-03-04T07:18:36;99643.92;;;0.52;100.00
43691;BME280;29293;52.190;21.226;2023-03-04T07:33:45;99645.81;;;0.61;100.00
43691;BME280;29293;52.190;21.226;2023-03-04T07:48:55;99634.44;;;0.71;100.00
43691;BME280;29293;52.190;21.226;2023-03-04T08:04:08;99626.83;;;0.83;100.00
43691;BME280;29293;52.190;21.226;2023-03-04T08:19:17;99608.16;;;0.97;100.00
43691;BME280;29293;52.190;21.226;2023-03-04T08:34:42;99601.69;;;1.10;100.00
43691;BME280;29293;52.190;21.226;2023-03-04T08:49:52;99600.13;;;1.16;100.00
43691;BME280;29293;52.190;21.226;2023-03-04T09:05:01;99587.73;;;1.19;100.00
43691;BME280;29293;52.190;21.226;2023-03-04T09:20:15;99586.61;;;1.32;100.00
43691;BME280;29293;52.190;21.226;2023-03-04T09:35:25;99563.94;;;1.62;100.00
43691;BME280;29293;52.190;21.226;2023-03-04T09:50:39;99558.06;;;1.79;100.00
43691;BME280;29293;52.190;21.226;2023-03-04T10:06:10;99543.64;;;1.65;100.00
43691;BME280;29293;52.190;21.226;2023-03-04T10:21:25;99539.67;;;1.68;100.00
43691;BME280;29293;52.190;21.226;2023-03-04T10:36:45;99527.05;;;1.66;100.00
43691;BME280;29293;52.190;21.226;2023-03-04T10:52:02;99504.03;;;1.72;100.00
43691;BME280;29293;52.190;21.226;2023-03-04T11:07:14;99492.23;;;1.77;100.00
43691;BME280;29293;52.190;21.226;2023-03-04T11:22:25;99489.81;;;1.71;100.00
43691;BME280;29293;52.190;21.226;2023-03-04T11:37:41;99477.23;;;1.74;100.00
43691;BME280;29293;52.190;21.226;2023-03-04T12:08:44;99443.66;;;1.65;100.00
43691;BME280;29293;52.190;21.226;2023-03-04T12:24:29;99442.61;;;1.85;100.00
43691;BME280;29293;52.190;21.226;2023-03-04T12:39:49;99445.23;;;1.99;100.00
43691;BME280;29293;52.190;21.226;2023-03-04T12:55:09;99448.60;;;2.20;100.00
43691;BME280;29293;52.190;21.226;2023-03-04T13:10:19;99433.27;;;2.82;100.00
43691;BME280;29293;52.190;21.226;2023-03-04T13:25:33;99427.48;;;3.31;100.00
43691;BME280;29293;52.190;21.226;2023-03-04T13:40:43;99412.72;;;3.74;100.00
43691;BME280;29293;52.190;21.226;2023-03-04T14:11:46;99443.75;;;1.71;100.00
43691;BME280;29293;52.190;21.226;2023-03-04T14:27:11;99427.08;;;1.10;100.00
43691;BME280;29293;52.190;21.226;2023-03-04T14:42:21;99414.14;;;1.35;100.00
43691;BME280;29293;52.190;21.226;2023-03-04T14:57:34;99421.01;;;1.68;100.00
43691;BME280;29293;52.190;21.226;2023-03-04T15:12:45;99443.95;;;2.03;100.00
43691;BME280;29293;52.190;21.226;2023-03-04T15:28:00;99457.90;;;2.03;100.00
43691;BME280;29293;52.190;21.226;2023-03-04T15:43:16;99496.67;;;1.83;100.00
43691;BME280;29293;52.190;21.226;2023-03-04T15:58:31;99562.10;;;1.43;100.00
43691;BME280;29293;52.190;21.226;2023-03-04T16:13:45;99604.27;;;0.80;100.00
43691;BME280;29293;52.190;21.226;2023-03-04T16:28:58;99640.83;;;0.32;100.00
43691;BME280;29293;52.190;21.226;2023-03-04T16:44:13;99672.48;;;-0.02;100.00
43691;BME280;29293;52.190;21.226;2023-03-04T16:59:28;99694.58;;;-0.38;100.00
43691;BME280;29293;52.190;21.226;2023-03-04T17:14:43;99719.20;;;-0.59;100.00
43691;BME280;29293;52.190;21.226;2023-03-04T17:30:13;99743.95;;;-0.74;100.00
43691;BME280;29293;52.190;21.226;2023-03-04T17:45:25;99770.63;;;-0.85;100.00
43691;BME280;29293;52.190;21.226;2023-03-04T18:00:41;99792.70;;;-1.02;100.00
43691;BME280;29293;52.190;21.226;2023-03-04T18:15:51;99793.98;;;-1.31;100.00
43691;BME280;29293;52.190;21.226;2023-03-04T18:31:13;99813.33;;;-1.64;100.00
43691;BME280;29293;52.190;21.226;2023-03-04T18:46:33;99835.05;;;-1.87;100.00
43691;BME280;29293;52.190;21.226;2023-03-04T19:02:11;99864.94;;;-1.99;100.00
43691;BME280;29293;52.190;21.226;2023-03-04T19:17:33;99866.94;;;-2.12;100.00
43691;BME280;29293;52.190;21.226;2023-03-04T19:32:48;99873.27;;;-2.42;100.00
43691;BME280;29293;52.190;21.226;2023-03-04T19:48:03;99883.99;;;-2.72;100.00
43691;BME280;29293;52.190;21.226;2023-03-04T20:03:35;99897.67;;;-3.02;100.00
43691;BME280;29293;52.190;21.226;2023-03-04T20:18:47;99898.27;;;-3.19;100.00
43691;BME280;29293;52.190;21.226;2023-03-04T20:34:21;99914.30;;;-3.37;100.00
43691;BME280;29293;52.190;21.226;2023-03-04T20:49:33;99918.46;;;-3.63;100.00
43691;BME280;29293;52.190;21.226;2023-03-04T21:05:02;99912.10;;;-3.82;100.00
43691;BME280;29293;52.190;21.226;2023-03-04T21:20:21;99912.21;;;-3.93;100.00
43691;BME280;29293;52.190;21.226;2023-03-04T21:36:00;99905.66;;;-4.01;100.00
43691;BME280;29293;52.190;21.226;2023-03-04T21:51:28;99917.20;;;-4.05;100.00
43691;BME280;29293;52.190;21.226;2023-03-04T22:06:47;99926.54;;;-4.10;100.00
43691;BME280;29293;52.190;21.226;2023-03-04T22:22:03;99925.86;;;-4.19;100.00
43691;BME280;29293;52.190;21.226;2023-03-04T22:37:21;99918.06;;;-4.31;100.00
43691;BME280;29293;52.190;21.226;2023-03-04T22:52:39;99917.86;;;-4.33;100.00
43691;BME280;29293;52.190;21.226;2023-03-04T23:08:00;99917.29;;;-4.44;100.00
43691;BME280;29293;52.190;21.226;2023-03-04T23:23:19;99922.14;;;-4.51;100.00
43691;BME280;29293;52.190;21.226;2023-03-04T23:38:32;99919.75;;;-4.65;100.00
43691;BME280;29293;52.190;21.226;2023-03-04T23:53:45;99912.33;;;-4.67;100.00
